sensor_id;sensor_type;location;lat;lon;timestamp;pressure;altitude;pressure_sealevel;temperature;humidity
10638;BME280;47007;49.252;8.904;2022-11-15T00:01:30;99466.31;;;7.65;100.00
10638;BME280;47007;49.252;8.904;2022-11-15T00:04:15;99526.78;;;7.97;100.00
10638;BME280;47007;49.252;8.904;2022-11-15T00:07:00;99527.09;;;8.02;100.00
10638;BME280;47007;49.252;8.904;2022-11-15T00:09:46;99452.13;;;7.57;100.00
10638;BME280;47007;49.252;8.904;2022-11-15T00:12:31;99483.38;;;7.77;100.00
10638;BME280;47007;49.252;8.904;2022-11-15T00:15:16;99530.66;;;7.86;100.00
10638;BME280;47007;49.252;8.904;2022-11-15T00:18:03;99521.97;;;7.78;100.00
10638;BME280;47007;49.252;8.904;2022-11-15T00:20:48;99510.91;;;7.74;100.00
10638;BME280;47007;49.252;8.904;2022-11-15T00:23:33;99516.88;;;7.68;100.00
10638;BME280;47007;49.252;8.904;2022-11-15T00:26:19;99517.69;;;7.69;100.00
10638;BME280;47007;49.252;8.904;2022-11-15T00:29:04;99522.34;;;7.58;100.00
10638;BME280;47007;49.252;8.904;2022-11-15T00:31:49;99501.31;;;7.50;100.00
10638;BME280;47007;49.252;8.904;2022-11-15T00:34:34;99529.22;;;7.76;100.00
10638;BME280;47007;49.252;8.904;2022-11-15T00:37:20;99519.59;;;7.83;100.00
10638;BME280;47007;49.252;8.904;2022-11-15T00:40:05;99490.97;;;7.41;100.00
10638;BME280;47007;49.252;8.904;2022-11-15T00:42:50;99515.78;;;7.54;100.00
10638;BME280;47007;49.252;8.904;2022-11-15T00:45:36;99528.63;;;7.57;100.00
10638;BME280;47007;49.252;8.904;2022-11-15T00:48:21;99460.06;;;7.18;100.00
10638;BME280;47007;49.252;8.904;2022-11-15T00:51:06;99502.34;;;7.41;100.00
10638;BME280;47007;49.252;8.904;2022-11-15T00:53:51;99512.34;;;7.46;100.00
10638;BME280;47007;49.252;8.904;2022-11-15T00:56:36;99472.78;;;7.15;100.00
10638;BME280;47007;49.252;8.904;2022-11-15T00:59:22;99484.91;;;7.24;100.00
10638;BME280;47007;49.252;8.904;2022-11-15T01:02:07;99508.16;;;7.20;100.00
10638;BME280;47007;49.252;8.904;2022-11-15T01:04:52;99502.22;;;7.18;100.00
10638;BME280;47007;49.252;8.904;2022-11-15T01:07:37;99496.31;;;7.16;100.00
10638;BME280;47007;49.252;8.904;2022-11-15T01:10:23;99432.84;;;6.79;100.00
10638;BME280;47007;49.252;8.904;2022-11-15T01:13:08;99484.59;;;7.19;100.00
10638;BME280;47007;49.252;8.904;2022-11-15T01:15:53;99485.78;;;7.16;100.00
10638;BME280;47007;49.252;8.904;2022-11-15T01:18:39;99479.22;;;6.96;100.00
10638;BME280;47007;49.252;8.904;2022-11-15T01:21:24;99437.28;;;6.70;100.00
10638;BME280;47007;49.252;8.904;2022-11-15T01:24:13;99490.75;;;6.95;100.00
10638;BME280;47007;49.252;8.904;2022-11-15T01:26:58;99471.22;;;6.73;100.00
10638;BME280;47007;49.252;8.904;2022-11-15T01:29:43;99465.09;;;6.81;100.00
10638;BME280;47007;49.252;8.904;2022-11-15T01:32:30;99479.75;;;6.83;100.00
10638;BME280;47007;49.252;8.904;2022-11-15T01:35:15;99500.66;;;6.85;100.00
10638;BME280;47007;49.252;8.904;2022-11-15T01:38:00;99489.97;;;6.87;100.00
10638;BME280;47007;49.252;8.904;2022-11-15T01:40:46;99495.66;;;7.06;100.00
10638;BME280;47007;49.252;8.904;2022-11-15T01:43:34;99482.13;;;7.26;100.00
10638;BME280;47007;49.252;8.904;2022-11-15T01:49:13;99472.16;;;7.44;100.00
10638;BME280;47007;49.252;8.904;2022-11-15T01:52:00;99457.97;;;7.53;100.00
10638;BME280;47007;49.252;8.904;2022-11-15T01:54:49;99456.00;;;7.47;100.00
10638;BME280;47007;49.252;8.904;2022-11-15T01:57:38;99393.28;;;6.95;100.00
10638;BME280;47007;49.252;8.904;2022-11-15T02:00:24;99365.69;;;6.75;100.00
10638;BME280;47007;49.252;8.904;2022-11-15T02:03:10;99460.53;;;7.22;100.00
10638;BME280;47007;49.252;8.904;2022-11-15T02:05:55;99432.66;;;6.89;100.00
10638;BME280;47007;49.252;8.904;2022-11-15T02:08:41;99406.84;;;6.76;100.00
10638;BME280;47007;49.252;8.904;2022-11-15T02:11:27;99417.06;;;6.71;100.00
10638;BME280;47007;49.252;8.904;2022-11-15T02:14:14;99442.25;;;6.65;100.00
10638;BME280;47007;49.252;8.904;2022-11-15T02:20:49;99447.19;;;6.76;100.00
10638;BME280;47007;49.252;8.904;2022-11-15T02:27:30;99426.31;;;6.67;100.00
10638;BME280;47007;49.252;8.904;2022-11-15T02:30:47;99439.75;;;6.80;100.00
10638;BME280;47007;49.252;8.904;2022-11-15T02:43:22;99431.41;;;6.60;100.00
10638;BME280;47007;49.252;8.904;2022-11-15T02:46:39;99409.38;;;6.53;100.00
10638;BME280;47007;49.252;8.904;2022-11-15T02:49:53;99419.91;;;6.53;100.00
10638;BME280;47007;49.252;8.904;2022-11-15T02:52:39;99366.97;;;6.24;100.00
10638;BME280;47007;49.252;8.904;2022-11-15T02:55:35;99416.28;;;6.46;100.00
10638;BME280;47007;49.252;8.904;2022-11-15T02:58:52;99412.16;;;6.52;100.00
10638;BME280;47007;49.252;8.904;2022-11-15T03:07:54;99399.94;;;6.75;100.00
10638;BME280;47007;49.252;8.904;2022-11-15T03:16:35;99385.63;;;6.77;100.00
10638;BME280;47007;49.252;8.904;2022-11-15T03:22:27;99372.81;;;6.66;100.00
10638;BME280;47007;49.252;8.904;2022-11-15T03:25:18;99363.56;;;6.78;100.00
10638;BME280;47007;49.252;8.904;2022-11-15T03:28:06;99351.69;;;6.74;100.00
10638;BME280;47007;49.252;8.904;2022-11-15T03:30:55;99376.53;;;6.80;100.00
10638;BME280;47007;49.252;8.904;2022-11-15T03:33:42;99353.56;;;6.66;100.00
10638;BME280;47007;49.252;8.904;2022-11-15T03:36:29;99371.25;;;6.88;100.00
10638;BME280;47007;49.252;8.904;2022-11-15T03:39:16;99370.69;;;7.01;100.00
10638;BME280;47007;49.252;8.904;2022-11-15T03:42:12;99380.53;;;7.07;100.00
10638;BME280;47007;49.252;8.904;2022-11-15T03:45:08;99391.28;;;6.97;100.00
10638;BME280;47007;49.252;8.904;2022-11-15T03:48:13;99389.16;;;6.93;100.00
10638;BME280;47007;49.252;8.904;2022-11-15T03:50:59;99391.75;;;7.09;100.00
10638;BME280;47007;49.252;8.904;2022-11-15T03:53:45;99363.09;;;7.06;100.00
10638;BME280;47007;49.252;8.904;2022-11-15T03:56:31;99379.34;;;7.17;100.00
10638;BME280;47007;49.252;8.904;2022-11-15T03:59:17;99372.53;;;7.31;100.00
10638;BME280;47007;49.252;8.904;2022-11-15T04:02:02;99346.63;;;7.35;100.00
10638;BME280;47007;49.252;8.904;2022-11-15T04:04:47;99336.22;;;7.41;100.00
10638;BME280;47007;49.252;8.904;2022-11-15T04:07:32;99356.22;;;7.58;100.00
10638;BME280;47007;49.252;8.904;2022-11-15T04:10:18;99358.78;;;7.67;100.00
10638;BME280;47007;49.252;8.904;2022-11-15T04:13:04;99358.69;;;7.60;100.00
10638;BME280;47007;49.252;8.904;2022-11-15T04:15:49;99375.63;;;7.66;100.00
10638;BME280;47007;49.252;8.904;2022-11-15T04:18:34;99380.00;;;7.73;100.00
10638;BME280;47007;49.252;8.904;2022-11-15T04:21:20;99385.06;;;7.83;100.00
10638;BME280;47007;49.252;8.904;2022-11-15T04:24:24;99369.78;;;7.93;100.00
10638;BME280;47007;49.252;8.904;2022-11-15T04:27:09;99355.78;;;7.92;100.00
10638;BME280;47007;49.252;8.904;2022-11-15T04:29:56;99346.78;;;7.87;100.00
10638;BME280;47007;49.252;8.904;2022-11-15T04:32:41;99370.44;;;7.95;100.00
10638;BME280;47007;49.252;8.904;2022-11-15T04:35:27;99365.50;;;7.92;100.00
10638;BME280;47007;49.252;8.904;2022-11-15T04:38:12;99306.09;;;7.58;100.00
10638;BME280;47007;49.252;8.904;2022-11-15T04:40:57;99358.84;;;7.81;100.00
10638;BME280;47007;49.252;8.904;2022-11-15T04:43:43;99347.72;;;7.71;100.00
10638;BME280;47007;49.252;8.904;2022-11-15T04:46:28;99332.06;;;7.70;100.00
10638;BME280;47007;49.252;8.904;2022-11-15T04:49:13;99308.22;;;7.63;100.00
10638;BME280;47007;49.252;8.904;2022-11-15T04:51:58;99324.88;;;7.64;100.00
10638;BME280;47007;49.252;8.904;2022-11-15T04:54:44;99340.09;;;7.53;100.00
10638;BME280;47007;49.252;8.904;2022-11-15T04:57:29;99349.94;;;7.60;100.00
10638;BME280;47007;49.252;8.904;2022-11-15T05:00:16;99325.72;;;7.56;100.00
10638;BME280;47007;49.252;8.904;2022-11-15T05:03:01;99248.97;;;7.05;100.00
10638;BME280;47007;49.252;8.904;2022-11-15T05:06:06;99331.41;;;7.68;100.00
10638;BME280;47007;49.252;8.904;2022-11-15T05:08:51;99345.91;;;7.72;100.00
10638;BME280;47007;49.252;8.904;2022-11-15T05:11:37;99307.75;;;7.37;100.00
10638;BME280;47007;49.252;8.904;2022-11-15T05:14:22;99327.31;;;7.65;100.00
10638;BME280;47007;49.252;8.904;2022-11-15T05:17:07;99323.69;;;7.66;100.00
10638;BME280;47007;49.252;8.904;2022-11-15T05:19:53;99273.31;;;7.38;100.00
10638;BME280;47007;49.252;8.904;2022-11-15T05:22:38;99309.16;;;7.47;100.00
10638;BME280;47007;49.252;8.904;2022-11-15T05:25:24;99287.94;;;7.41;100.00
10638;BME280;47007;49.252;8.904;2022-11-15T05:28:09;99316.31;;;7.62;100.00
10638;BME280;47007;49.252;8.904;2022-11-15T05:31:08;99338.22;;;7.62;100.00
10638;BME280;47007;49.252;8.904;2022-11-15T05:33:55;99328.31;;;7.64;100.00
10638;BME280;47007;49.252;8.904;2022-11-15T05:36:42;99296.19;;;7.61;100.00
10638;BME280;47007;49.252;8.904;2022-11-15T05:39:28;99319.16;;;7.75;100.00
10638;BME280;47007;49.252;8.904;2022-11-15T05:42:14;99287.22;;;7.70;100.00
10638;BME280;47007;49.252;8.904;2022-11-15T05:45:02;99292.13;;;7.73;100.00
10638;BME280;47007;49.252;8.904;2022-11-15T05:47:48;99287.69;;;7.73;100.00
10638;BME280;47007;49.252;8.904;2022-11-15T05:50:36;99306.84;;;7.67;100.00
10638;BME280;47007;49.252;8.904;2022-11-15T05:53:24;99255.09;;;7.29;100.00
10638;BME280;47007;49.252;8.904;2022-11-15T05:56:10;99295.16;;;7.47;100.00
10638;BME280;47007;49.252;8.904;2022-11-15T05:58:56;99320.00;;;7.52;100.00
10638;BME280;47007;49.252;8.904;2022-11-15T06:01:44;99312.88;;;7.30;100.00
10638;BME280;47007;49.252;8.904;2022-11-15T06:04:29;99338.22;;;7.39;100.00
10638;BME280;47007;49.252;8.904;2022-11-15T06:07:15;99342.59;;;7.47;100.00
10638;BME280;47007;49.252;8.904;2022-11-15T06:10:01;99335.75;;;7.61;100.00
10638;BME280;47007;49.252;8.904;2022-11-15T06:12:46;99336.47;;;7.77;100.00
10638;BME280;47007;49.252;8.904;2022-11-15T06:15:32;99328.97;;;8.04;100.00
10638;BME280;47007;49.252;8.904;2022-11-15T06:18:19;99321.25;;;8.02;100.00
10638;BME280;47007;49.252;8.904;2022-11-15T06:21:05;99308.75;;;7.96;100.00
10638;BME280;47007;49.252;8.904;2022-11-15T06:23:50;99315.16;;;8.02;100.00
10638;BME280;47007;49.252;8.904;2022-11-15T06:26:35;99292.25;;;7.79;100.00
10638;BME280;47007;49.252;8.904;2022-11-15T06:29:21;99290.53;;;7.49;100.00
10638;BME280;47007;49.252;8.904;2022-11-15T06:32:06;99303.03;;;7.24;100.00
10638;BME280;47007;49.252;8.904;2022-11-15T06:34:52;99296.38;;;7.13;100.00
10638;BME280;47007;49.252;8.904;2022-11-15T06:37:37;99294.94;;;7.03;100.00
10638;BME280;47007;49.252;8.904;2022-11-15T06:40:22;99301.75;;;7.20;100.00
10638;BME280;47007;49.252;8.904;2022-11-15T06:43:08;99319.16;;;7.29;100.00
10638;BME280;47007;49.252;8.904;2022-11-15T06:45:53;99317.47;;;7.36;100.00
10638;BME280;47007;49.252;8.904;2022-11-15T06:48:39;99329.59;;;7.45;100.00
10638;BME280;47007;49.252;8.904;2022-11-15T06:51:24;99335.75;;;7.38;100.00
10638;BME280;47007;49.252;8.904;2022-11-15T06:54:09;99339.63;;;7.50;100.00
10638;BME280;47007;49.252;8.904;2022-11-15T06:56:54;99278.69;;;7.22;100.00
10638;BME280;47007;49.252;8.904;2022-11-15T06:59:39;99317.13;;;7.39;100.00
10638;BME280;47007;49.252;8.904;2022-11-15T07:02:25;99317.81;;;7.33;100.00
10638;BME280;47007;49.252;8.904;2022-11-15T07:05:11;99300.47;;;7.16;100.00
10638;BME280;47007;49.252;8.904;2022-11-15T07:07:58;99340.72;;;7.55;100.00
10638;BME280;47007;49.252;8.904;2022-11-15T07:10:43;99343.50;;;7.62;100.00
10638;BME280;47007;49.252;8.904;2022-11-15T07:13:30;99351.16;;;7.72;100.00
10638;BME280;47007;49.252;8.904;2022-11-15T07:16:19;99290.63;;;7.55;100.00
10638;BME280;47007;49.252;8.904;2022-11-15T07:19:05;99322.44;;;7.77;100.00
10638;BME280;47007;49.252;8.904;2022-11-15T07:21:50;99352.97;;;7.94;100.00
10638;BME280;47007;49.252;8.904;2022-11-15T07:24:35;99350.97;;;7.96;100.00
10638;BME280;47007;49.252;8.904;2022-11-15T07:27:21;99307.47;;;7.92;100.00
10638;BME280;47007;49.252;8.904;2022-11-15T07:30:07;99355.63;;;8.32;100.00
10638;BME280;47007;49.252;8.904;2022-11-15T07:32:56;99320.63;;;8.29;100.00
10638;BME280;47007;49.252;8.904;2022-11-15T07:35:42;99333.41;;;8.41;100.00
10638;BME280;47007;49.252;8.904;2022-11-15T07:38:28;99304.63;;;8.31;100.00
10638;BME280;47007;49.252;8.904;2022-11-15T07:41:14;99323.78;;;8.33;100.00
10638;BME280;47007;49.252;8.904;2022-11-15T07:43:59;99291.22;;;8.18;100.00
10638;BME280;47007;49.252;8.904;2022-11-15T07:46:45;99324.06;;;8.53;100.00
10638;BME280;47007;49.252;8.904;2022-11-15T07:49:30;99327.63;;;8.60;100.00
10638;BME280;47007;49.252;8.904;2022-11-15T07:52:16;99288.44;;;8.49;100.00
10638;BME280;47007;49.252;8.904;2022-11-15T07:55:01;99326.31;;;8.85;100.00
10638;BME280;47007;49.252;8.904;2022-11-15T07:57:46;99317.22;;;8.88;100.00
10638;BME280;47007;49.252;8.904;2022-11-15T08:00:32;99275.66;;;8.67;100.00
10638;BME280;47007;49.252;8.904;2022-11-15T08:03:17;99299.53;;;8.88;100.00
10638;BME280;47007;49.252;8.904;2022-11-15T08:06:03;99324.06;;;9.18;100.00
10638;BME280;47007;49.252;8.904;2022-11-15T08:08:48;99272.44;;;9.01;100.00
10638;BME280;47007;49.252;8.904;2022-11-15T08:11:33;99326.31;;;9.36;100.00
10638;BME280;47007;49.252;8.904;2022-11-15T08:14:19;99316.41;;;9.45;100.00
10638;BME280;47007;49.252;8.904;2022-11-15T08:17:06;99309.81;;;9.55;100.00
10638;BME280;47007;49.252;8.904;2022-11-15T08:19:51;99311.31;;;9.64;100.00
10638;BME280;47007;49.252;8.904;2022-11-15T08:22:36;99293.88;;;9.49;100.00
10638;BME280;47007;49.252;8.904;2022-11-15T08:25:23;99273.16;;;9.31;100.00
10638;BME280;47007;49.252;8.904;2022-11-15T08:28:10;99306.94;;;9.50;100.00
10638;BME280;47007;49.252;8.904;2022-11-15T08:30:55;99267.13;;;9.37;100.00
10638;BME280;47007;49.252;8.904;2022-11-15T08:33:41;99286.44;;;9.59;100.00
10638;BME280;47007;49.252;8.904;2022-11-15T08:36:26;99292.34;;;9.82;100.00
10638;BME280;47007;49.252;8.904;2022-11-15T08:39:21;99293.31;;;10.02;100.00
10638;BME280;47007;49.252;8.904;2022-11-15T08:42:06;99228.19;;;9.80;100.00
10638;BME280;47007;49.252;8.904;2022-11-15T08:44:51;99286.84;;;10.33;100.00
10638;BME280;47007;49.252;8.904;2022-11-15T08:47:37;99263.56;;;10.28;100.00
10638;BME280;47007;49.252;8.904;2022-11-15T08:50:22;99296.97;;;10.64;100.00
10638;BME280;47007;49.252;8.904;2022-11-15T08:53:10;99279.72;;;10.74;100.00
10638;BME280;47007;49.252;8.904;2022-11-15T08:55:55;99276.13;;;10.95;100.00
10638;BME280;47007;49.252;8.904;2022-11-15T08:58:41;99255.75;;;11.02;100.00
10638;BME280;47007;49.252;8.904;2022-11-15T09:01:27;99249.84;;;11.07;100.00
10638;BME280;47007;49.252;8.904;2022-11-15T09:04:12;99237.66;;;11.12;100.00
10638;BME280;47007;49.252;8.904;2022-11-15T09:06:58;99235.16;;;11.04;100.00
10638;BME280;47007;49.252;8.904;2022-11-15T09:09:43;99260.84;;;11.04;100.00
10638;BME280;47007;49.252;8.904;2022-11-15T09:12:28;99263.75;;;11.15;100.00
10638;BME280;47007;49.252;8.904;2022-11-15T09:15:15;99222.31;;;11.14;100.00
10638;BME280;47007;49.252;8.904;2022-11-15T09:18:00;99246.25;;;11.47;100.00
10638;BME280;47007;49.252;8.904;2022-11-15T09:20:46;99243.78;;;11.52;100.00
10638;BME280;47007;49.252;8.904;2022-11-15T09:23:31;99246.84;;;11.63;100.00
10638;BME280;47007;49.252;8.904;2022-11-15T09:26:17;99230.34;;;11.61;100.00
10638;BME280;47007;49.252;8.904;2022-11-15T09:29:03;99249.53;;;11.76;100.00
10638;BME280;47007;49.252;8.904;2022-11-15T09:31:48;99238.94;;;11.82;100.00
10638;BME280;47007;49.252;8.904;2022-11-15T09:34:33;99225.25;;;11.85;100.00
10638;BME280;47007;49.252;8.904;2022-11-15T09:37:19;99234.44;;;11.96;100.00
10638;BME280;47007;49.252;8.904;2022-11-15T09:40:04;99206.22;;;12.08;100.00
10638;BME280;47007;49.252;8.904;2022-11-15T09:43:05;99214.34;;;12.33;100.00
10638;BME280;47007;49.252;8.904;2022-11-15T09:48:51;99212.06;;;12.37;100.00
10638;BME280;47007;49.252;8.904;2022-11-15T09:51:53;99204.50;;;12.40;100.00
10638;BME280;47007;49.252;8.904;2022-11-15T09:57:18;99195.63;;;12.59;100.00
10638;BME280;47007;49.252;8.904;2022-11-15T10:05:46;99178.00;;;12.65;100.00
10638;BME280;47007;49.252;8.904;2022-11-15T10:08:25;99195.25;;;12.94;100.00
10638;BME280;47007;49.252;8.904;2022-11-15T10:10:57;99127.69;;;12.64;100.00
10638;BME280;47007;49.252;8.904;2022-11-15T10:13:47;99175.47;;;13.21;100.00
10638;BME280;47007;49.252;8.904;2022-11-15T10:19:19;99169.91;;;13.48;100.00
10638;BME280;47007;49.252;8.904;2022-11-15T10:24:41;99149.00;;;13.51;100.00
10638;BME280;47007;49.252;8.904;2022-11-15T10:27:12;99146.22;;;13.64;100.00
10638;BME280;47007;49.252;8.904;2022-11-15T10:29:48;99146.75;;;13.73;100.00
10638;BME280;47007;49.252;8.904;2022-11-15T10:32:18;99137.28;;;13.59;100.00
10638;BME280;47007;49.252;8.904;2022-11-15T10:34:48;99075.44;;;13.07;100.00
10638;BME280;47007;49.252;8.904;2022-11-15T10:37:27;99070.38;;;12.99;100.00
10638;BME280;47007;49.252;8.904;2022-11-15T10:40:27;99140.16;;;13.33;100.00
10638;BME280;47007;49.252;8.904;2022-11-15T10:43:17;99135.88;;;13.32;100.00
10638;BME280;47007;49.252;8.904;2022-11-15T10:45:45;99138.03;;;13.41;100.00
10638;BME280;47007;49.252;8.904;2022-11-15T10:50:46;99131.03;;;13.47;100.00
10638;BME280;47007;49.252;8.904;2022-11-15T10:53:27;99125.03;;;13.51;100.00
10638;BME280;47007;49.252;8.904;2022-11-15T10:55:57;99142.00;;;13.57;100.00
10638;BME280;47007;49.252;8.904;2022-11-15T11:01:15;99113.22;;;13.47;100.00
10638;BME280;47007;49.252;8.904;2022-11-15T11:03:44;99112.94;;;13.55;100.00
10638;BME280;47007;49.252;8.904;2022-11-15T11:06:16;99118.38;;;13.60;100.00
10638;BME280;47007;49.252;8.904;2022-11-15T11:08:58;99060.84;;;13.41;100.00
10638;BME280;47007;49.252;8.904;2022-11-15T11:11:48;99122.81;;;13.91;100.00
10638;BME280;47007;49.252;8.904;2022-11-15T11:14:26;99104.53;;;13.95;100.00
10638;BME280;47007;49.252;8.904;2022-11-15T11:19:38;99080.75;;;14.12;100.00
10638;BME280;47007;49.252;8.904;2022-11-15T11:24:56;99080.28;;;14.33;100.00
10638;BME280;47007;49.252;8.904;2022-11-15T11:30:16;99071.94;;;14.59;100.00
10638;BME280;47007;49.252;8.904;2022-11-15T11:33:08;99057.09;;;14.63;100.00
10638;BME280;47007;49.252;8.904;2022-11-15T11:35:59;99074.53;;;14.78;100.00
10638;BME280;47007;49.252;8.904;2022-11-15T11:38:43;99051.13;;;14.80;100.00
10638;BME280;47007;49.252;8.904;2022-11-15T11:47:11;99050.88;;;14.69;100.00
10638;BME280;47007;49.252;8.904;2022-11-15T11:49:51;99046.38;;;14.82;100.00
10638;BME280;47007;49.252;8.904;2022-11-15T11:52:23;99026.69;;;15.06;100.00
10638;BME280;47007;49.252;8.904;2022-11-15T12:00:21;99007.88;;;15.01;100.00
10638;BME280;47007;49.252;8.904;2022-11-15T12:05:35;99006.44;;;14.75;100.00
10638;BME280;47007;49.252;8.904;2022-11-15T12:08:18;98965.38;;;14.53;100.00
10638;BME280;47007;49.252;8.904;2022-11-15T12:10:52;99005.88;;;14.96;100.00
10638;BME280;47007;49.252;8.904;2022-11-15T12:13:23;98984.28;;;14.74;100.00
10638;BME280;47007;49.252;8.904;2022-11-15T12:15:57;98995.66;;;14.58;100.00
10638;BME280;47007;49.252;8.904;2022-11-15T12:18:28;98991.03;;;14.35;100.00
10638;BME280;47007;49.252;8.904;2022-11-15T12:21:00;98995.25;;;14.13;100.00
10638;BME280;47007;49.252;8.904;2022-11-15T12:23:41;99016.34;;;14.15;100.00
10638;BME280;47007;49.252;8.904;2022-11-15T12:26:19;99010.97;;;14.03;100.00
10638;BME280;47007;49.252;8.904;2022-11-15T12:28:54;99016.13;;;13.98;100.00
10638;BME280;47007;49.252;8.904;2022-11-15T12:34:03;99007.19;;;14.22;100.00
10638;BME280;47007;49.252;8.904;2022-11-15T12:36:38;99003.84;;;14.15;100.00
10638;BME280;47007;49.252;8.904;2022-11-15T12:39:07;98993.94;;;14.04;100.00
10638;BME280;47007;49.252;8.904;2022-11-15T12:47:02;99001.44;;;13.95;100.00
10638;BME280;47007;49.252;8.904;2022-11-15T12:59:53;98992.09;;;14.05;100.00
10638;BME280;47007;49.252;8.904;2022-11-15T13:02:24;98993.03;;;14.10;100.00
10638;BME280;47007;49.252;8.904;2022-11-15T13:04:54;98950.50;;;14.03;100.00
10638;BME280;47007;49.252;8.904;2022-11-15T13:33:19;98901.81;;;14.50;100.00
10638;BME280;47007;49.252;8.904;2022-11-15T13:35:49;98904.03;;;14.64;100.00
10638;BME280;47007;49.252;8.904;2022-11-15T13:38:31;98880.97;;;14.58;100.00
10638;BME280;47007;49.252;8.904;2022-11-15T13:41:00;98866.34;;;14.49;100.00
10638;BME280;47007;49.252;8.904;2022-11-15T13:43:36;98870.41;;;14.63;100.00
10638;BME280;47007;49.252;8.904;2022-11-15T13:46:04;98878.19;;;14.77;100.00
10638;BME280;47007;49.252;8.904;2022-11-15T13:48:31;98863.59;;;14.56;100.00
10638;BME280;47007;49.252;8.904;2022-11-15T13:51:07;98864.28;;;14.63;100.00
10638;BME280;47007;49.252;8.904;2022-11-15T13:53:39;98859.66;;;14.58;100.00
10638;BME280;47007;49.252;8.904;2022-11-15T13:56:06;98859.28;;;14.66;100.00
10638;BME280;47007;49.252;8.904;2022-11-15T13:58:37;98845.50;;;14.58;100.00
10638;BME280;47007;49.252;8.904;2022-11-15T14:01:04;98863.91;;;14.59;100.00
10638;BME280;47007;49.252;8.904;2022-11-15T14:03:41;98840.84;;;14.42;100.00
10638;BME280;47007;49.252;8.904;2022-11-15T14:06:15;98847.00;;;14.42;100.00
10638;BME280;47007;49.252;8.904;2022-11-15T14:11:24;98860.91;;;14.44;100.00
10638;BME280;47007;49.252;8.904;2022-11-15T14:16:44;98843.59;;;14.23;100.00
10638;BME280;47007;49.252;8.904;2022-11-15T14:24:34;98820.00;;;13.85;100.00
10638;BME280;47007;49.252;8.904;2022-11-15T14:29:49;98829.41;;;13.88;100.00
10638;BME280;47007;49.252;8.904;2022-11-15T14:32:27;98830.66;;;13.85;100.00
10638;BME280;47007;49.252;8.904;2022-11-15T14:34:56;98833.81;;;13.82;100.00
10638;BME280;47007;49.252;8.904;2022-11-15T14:37:32;98821.75;;;13.80;100.00
10638;BME280;47007;49.252;8.904;2022-11-15T14:40:03;98821.84;;;13.85;100.00
10638;BME280;47007;49.252;8.904;2022-11-15T14:42:30;98802.63;;;13.71;100.00
10638;BME280;47007;49.252;8.904;2022-11-15T14:44:57;98823.81;;;13.78;100.00
10638;BME280;47007;49.252;8.904;2022-11-15T14:47:24;98824.53;;;13.85;100.00
10638;BME280;47007;49.252;8.904;2022-11-15T14:49:50;98815.28;;;13.87;100.00
10638;BME280;47007;49.252;8.904;2022-11-15T14:52:31;98817.72;;;14.00;100.00
10638;BME280;47007;49.252;8.904;2022-11-15T14:55:04;98821.56;;;14.05;100.00
10638;BME280;47007;49.252;8.904;2022-11-15T14:57:36;98796.31;;;14.07;100.00
10638;BME280;47007;49.252;8.904;2022-11-15T15:00:04;98801.06;;;14.05;100.00
10638;BME280;47007;49.252;8.904;2022-11-15T15:02:41;98790.03;;;14.01;100.00
10638;BME280;47007;49.252;8.904;2022-11-15T15:07:46;98796.81;;;13.62;100.00
10638;BME280;47007;49.252;8.904;2022-11-15T15:10:14;98798.53;;;13.57;100.00
10638;BME280;47007;49.252;8.904;2022-11-15T15:13:01;98793.06;;;13.52;100.00
10638;BME280;47007;49.252;8.904;2022-11-15T15:15:33;98781.31;;;13.59;100.00
10638;BME280;47007;49.252;8.904;2022-11-15T15:18:01;98726.22;;;13.18;100.00
10638;BME280;47007;49.252;8.904;2022-11-15T15:20:28;98791.19;;;13.41;100.00
10638;BME280;47007;49.252;8.904;2022-11-15T15:22:56;98779.50;;;13.42;100.00
10638;BME280;47007;49.252;8.904;2022-11-15T15:25:28;98773.59;;;13.40;100.00
10638;BME280;47007;49.252;8.904;2022-11-15T15:27:55;98779.84;;;13.34;100.00
10638;BME280;47007;49.252;8.904;2022-11-15T15:30:23;98744.47;;;13.15;100.00
10638;BME280;47007;49.252;8.904;2022-11-15T15:32:50;98760.34;;;13.21;100.00
10638;BME280;47007;49.252;8.904;2022-11-15T15:35:18;98765.31;;;13.18;100.00
10638;BME280;47007;49.252;8.904;2022-11-15T15:37:46;98775.94;;;13.18;100.00
10638;BME280;47007;49.252;8.904;2022-11-15T15:40:16;98771.66;;;13.17;100.00
10638;BME280;47007;49.252;8.904;2022-11-15T15:42:43;98775.13;;;13.17;100.00
10638;BME280;47007;49.252;8.904;2022-11-15T15:45:10;98763.91;;;13.15;100.00
10638;BME280;47007;49.252;8.904;2022-11-15T15:47:38;98770.41;;;13.19;100.00
10638;BME280;47007;49.252;8.904;2022-11-15T15:50:26;98760.22;;;13.16;100.00
10638;BME280;47007;49.252;8.904;2022-11-15T15:52:58;98770.66;;;13.11;100.00
10638;BME280;47007;49.252;8.904;2022-11-15T15:55:25;98757.84;;;13.08;100.00
10638;BME280;47007;49.252;8.904;2022-11-15T15:57:53;98741.28;;;13.06;100.00
10638;BME280;47007;49.252;8.904;2022-11-15T16:00:20;98751.91;;;13.24;100.00
10638;BME280;47007;49.252;8.904;2022-11-15T16:02:49;98750.84;;;13.25;100.00
10638;BME280;47007;49.252;8.904;2022-11-15T16:05:16;98752.13;;;13.23;100.00
10638;BME280;47007;49.252;8.904;2022-11-15T16:07:44;98720.66;;;13.02;100.00
10638;BME280;47007;49.252;8.904;2022-11-15T16:10:27;98714.41;;;12.96;100.00
10638;BME280;47007;49.252;8.904;2022-11-15T16:12:56;98729.78;;;12.94;100.00
10638;BME280;47007;49.252;8.904;2022-11-15T16:15:25;98732.56;;;12.99;100.00
10638;BME280;47007;49.252;8.904;2022-11-15T16:18:00;98704.84;;;12.77;100.00
10638;BME280;47007;49.252;8.904;2022-11-15T16:20:41;98728.59;;;12.90;100.00
10638;BME280;47007;49.252;8.904;2022-11-15T16:23:14;98723.00;;;12.80;100.00
10638;BME280;47007;49.252;8.904;2022-11-15T16:25:54;98722.09;;;12.86;100.00
10638;BME280;47007;49.252;8.904;2022-11-15T16:28:32;98706.91;;;12.75;100.00
10638;BME280;47007;49.252;8.904;2022-11-15T16:31:01;98716.66;;;12.81;100.00
10638;BME280;47007;49.252;8.904;2022-11-15T16:33:28;98695.56;;;12.68;100.00